aviador You're here:

YEML Decoded Metar

in
Report Time2018-06-23 05:00:00
UTC Time2018-06-23 06:11:38
Flight Rules Old
Wind110° at 06 kt
W.Decomp.*RWY 15: 4.6 kt HW 3.9 kt LCW
RWY 06: 3.9 kt HW 4.6 kt RCW
W.Rank110° ranks 8
Current wind is below 110° avg. (6.9)
Visibility9999 m
Phenomena:N/A
Clouds:N/A
Expected CloudBase > 6,400 ft AGL from Temp-Dew spread
CeilingNone
Temp24°C
Dew Point08°C (36% RH)
AAT21.4°C
QNH1020 hPa
Raw Report
METAR YEML 230500Z AUTO 11006KT 9999 // NCD 24/08 Q1020=

Extra information for YEML:More info

Social comments